Enders, Pennsylvania
Current Conditions -  °F | °C
As of 6:58 PM on Monday 20 Oct 2014 (Local Time) from KMUI Reporting Station
Few Clouds Few Clouds  
Wind Chill: 55°   Ceiling: Unl
Heat Index: 55°   Visibility: 10mi
Dew Point: 48°   Wind: 2mph
Humidity: 76%   Direction: 30°NNE
Pressure: 29.95"   Gusts: NA
Location:  40.4949°N, 76.8115°W
Report Text: KMUI 202258Z AUTO 03002KT 10SM FEW070 13/09 A2995 RMK AO2 SLP147 T01290087 $
Loading
Personal Weather Stations






























Interactive Weather Map
Tropical Storm Tracking
New forecast layout! Learn more

10-Day Weather Forecast

Advertisements
Track Severe Weather on mobile